Alpena, Arkansas
Current Conditions -  °F | °C
As of 3:53 AM on Monday 22 Dec 2014 (Local Time) from KHRO Reporting Station
Overcast Overcast  
Wind Chill: 40°   Ceiling: 600
Heat Index: 44°   Visibility: 8mi
Dew Point: 42°   Wind: 8mph
Humidity: 93%   Direction: 150°SSE
Pressure: 29.7"   Gusts: NA
Location:  36.29°N, 93.29°W
Report Text: KHRO 220953Z AUTO 15007KT 8SM OVC006 07/06 A2970 RMK AO2 SLP058 T00670056 $
Loading
Personal Weather Stations






























Interactive Weather Map New forecast layout! Learn more

10-Day Weather Forecast

Advertisements
Track Severe Weather on mobile